Time;durP1;ratioP1;P1;durP2;ratioP2;P2;SDS_P1;SDS_P2;PMS_P1;PMS_P2;Temp;Humidity;BMP_temperature;BMP_pressure;BME280_temperature;BME280_humidity;BME280_pressure;Samples;Min_cycle;Max_cycle;Signal;HPM_P1;HPM_P2
2022/12/26 00:02:26;;;;;;;;;9.50;9.50;;;;;8.45;68.00;102072.00;146619;669;46010;-71
2022/12/26 00:05:26;;;;;;;;;18.00;17.00;;;;;8.49;66.99;102072.38;146620;608;46016;-71
2022/12/26 00:08:22;;;;;;;;;22.50;20.25;;;;;8.51;67.00;102083.75;146619;622;46010;-70
2022/12/26 00:11:22;;;;;;;;;22.50;19.75;;;;;8.51;66.76;102080.25;146609;593;46012;-68
2022/12/26 00:14:24;;;;;;;;;20.00;17.25;;;;;8.44;66.57;102076.28;146617;604;46010;-71
2022/12/26 00:17:23;;;;;;;;;46.50;35.25;;;;;8.39;68.03;102081.84;146613;565;46016;-69
2022/12/26 00:20:22;;;;;;;;;49.75;41.00;;;;;8.26;67.60;102079.91;146614;591;46010;-72
2022/12/26 00:23:32;;;;;;;;;59.75;48.25;;;;;8.15;68.66;102084.19;146611;569;46017;-71
2022/12/26 00:26:26;;;;;;;;;62.25;44.25;;;;;8.03;69.38;102083.16;146614;626;46010;-67
2022/12/26 00:29:25;;;;;;;;;61.00;46.25;;;;;7.97;69.06;102086.12;146611;564;46918;-69
2022/12/26 00:32:23;;;;;;;;;40.25;32.75;;;;;7.94;68.94;102090.13;146616;599;46010;-69
2022/12/26 00:35:18;;;;;;;;;31.50;29.00;;;;;7.93;69.40;102096.09;146612;581;46013;-69
2022/12/26 00:38:13;;;;;;;;;25.75;22.00;;;;;7.93;68.65;102106.41;146617;577;45021;-69
2022/12/26 00:41:10;;;;;;;;;25.50;20.25;;;;;7.86;69.04;102103.31;146612;633;46016;-71
2022/12/26 00:44:14;;;;;;;;;18.25;14.75;;;;;7.82;69.20;102096.09;146615;590;46010;-73
2022/12/26 00:47:08;;;;;;;;;25.00;21.00;;;;;7.75;69.04;102101.50;146613;632;46012;-71
2022/12/26 00:50:20;;;;;;;;;16.50;14.50;;;;;7.67;69.31;102099.06;146618;599;46010;-72
2022/12/26 00:53:24;;;;;;;;;21.25;17.25;;;;;7.60;68.96;102100.19;146614;574;47012;-72
2022/12/26 00:56:18;;;;;;;;;23.75;21.25;;;;;7.60;69.53;102095.03;146617;630;46020;-72
2022/12/26 00:59:27;;;;;;;;;34.50;27.25;;;;;7.58;69.58;102083.69;146614;625;46918;-73
2022/12/26 01:02:38;;;;;;;;;22.50;18.50;;;;;7.53;69.71;102090.13;146617;613;46020;-74
2022/12/26 01:05:37;;;;;;;;;13.25;13.25;;;;;7.44;69.74;102087.66;146618;692;46016;-70
2022/12/26 01:08:48;;;;;;;;;9.50;8.50;;;;;7.40;69.62;102071.03;146621;609;46010;-70
2022/12/26 01:11:42;;;;;;;;;15.50;12.00;;;;;7.40;70.60;102077.87;146622;612;46016;-73
2022/12/26 01:14:52;;;;;;;;;;;;;;;;;;;;;
2022/12/26 01:18:10;;;;;;;;;12.25;9.75;;;;;5.75;69.89;101787.03;146621;603;46012;-72
2022/12/26 01:21:10;;;;;;;;;13.50;9.75;;;;;7.44;70.81;102082.50;146621;588;46033;-74
2022/12/26 01:24:02;;;;;;;;;12.00;10.75;;;;;7.45;70.82;102086.91;146615;601;46016;-74
2022/12/26 01:26:57;;;;;;;;;11.75;9.00;;;;;7.48;71.15;102086.28;146624;576;46010;-73
2022/12/26 01:29:53;;;;;;;;;14.50;12.00;;;;;7.48;71.32;102075.97;146619;620;46012;-75
2022/12/26 01:33:01;;;;;;;;;13.75;11.50;;;;;7.52;71.28;102080.59;146620;642;46010;-75
2022/12/26 01:36:00;;;;;;;;;14.00;14.00;;;;;7.58;71.15;102074.28;146615;591;46016;-74
2022/12/26 01:38:57;;;;;;;;;16.50;13.00;;;;;7.67;70.86;102081.91;146620;651;46010;-70
2022/12/26 01:41:49;;;;;;;;;20.50;15.75;;;;;7.78;70.75;102081.09;146617;724;46016;-70
2022/12/26 01:45:26;;;;;;;;;17.25;15.25;;;;;7.90;70.71;102088.09;146620;574;46010;-70
2022/12/26 01:48:36;;;;;;;;;11.25;11.00;;;;;7.99;70.40;102089.75;146614;641;46016;-71
2022/12/26 01:51:35;;;;;;;;;9.50;7.75;;;;;8.06;69.85;102101.50;146620;583;46010;-70
2022/12/26 01:54:52;;;;;;;;;;;;;;;;;;;;;
2022/12/26 01:57:57;;;;;;;;;11.75;9.00;;;;;8.15;69.29;102089.34;146619;588;46021;-72
2022/12/26 02:01:08;;;;;;;;;45.00;34.50;;;;;6.50;68.77;101789.13;146619;590;46012;-70
2022/12/26 02:07:31;;;;;;;;;11.75;10.00;;;;;6.46;68.99;101812.06;146617;569;46016;-73
2022/12/26 02:10:33;;;;;;;;;9.75;9.75;;;;;7.94;69.79;102085.88;146615;616;46918;-67
2022/12/26 02:13:25;;;;;;;;;9.00;8.00;;;;;7.91;69.57;102077.87;146620;609;46012;-73
2022/12/26 02:16:32;;;;;;;;;10.75;8.00;;;;;7.87;69.80;102091.31;146619;565;46020;-73
2022/12/26 02:20:00;;;;;;;;;;;;;;;;;;;;;
2022/12/26 02:24:15;;;;;;;;;7.75;4.00;;;;;6.04;69.01;101782.63;146621;565;46020;-74
2022/12/26 02:27:51;;;;;;;;;6.00;5.25;;;;;7.75;70.06;102085.13;146620;570;46013;-72
2022/12/26 02:31:05;;;;;;;;;21.25;18.25;;;;;7.64;69.97;102067.06;146622;629;46020;-71
2022/12/26 02:34:22;;;;;;;;;11.75;9.25;;;;;7.74;70.01;102084.22;146614;692;46917;-71
2022/12/26 02:37:51;;;;;;;;;6.00;5.75;;;;;7.75;69.76;102095.44;146619;574;46020;-72
2022/12/26 02:41:51;;;;;;;;;6.00;4.25;;;;;6.05;69.14;101792.19;146605;618;48034;-71
2022/12/26 02:49:02;;;;;;;;;9.00;7.00;;;;;5.96;68.69;101782.87;146618;582;46016;-71
2022/12/26 03:13:57;;;;;;;;;21.50;18.00;;;;;7.26;70.82;102117.97;146617;588;46021;-71
2022/12/26 03:17:30;;;;;;;;;;;;;;;;;;;;;
2022/12/26 03:20:34;;;;;;;;;19.75;16.75;;;;;7.21;71.20;102127.00;146614;620;46021;-72
2022/12/26 03:23:31;;;;;;;;;22.25;17.00;;;;;7.20;71.34;102125.19;146612;591;46016;-71
2022/12/26 03:26:40;;;;;;;;;19.50;19.00;;;;;7.20;71.22;102119.13;146620;570;46011;-71
2022/12/26 03:32:48;;;;;;;;;22.75;17.50;;;;;7.13;71.09;102128.91;146622;595;45021;-75
2022/12/26 03:35:50;;;;;;;;;18.25;13.50;;;;;5.35;70.43;101816.03;146616;571;46016;-71
2022/12/26 03:39:19;;;;;;;;;20.25;18.25;;;;;7.08;71.15;102129.28;146620;616;46020;-74
2022/12/26 04:46:08;;;;;;;;;23.00;20.50;;;;;6.50;72.26;102166.22;146603;697;46016;-68
2022/12/26 04:52:19;;;;;;;;;18.25;15.75;;;;;6.38;73.24;102173.75;146606;650;46016;-66
2022/12/26 04:55:14;;;;;;;;;15.00;11.00;;;;;6.36;74.09;102175.31;146611;607;46020;-66
2022/12/26 04:58:10;;;;;;;;;11.25;9.50;;;;;6.36;74.60;102172.72;146608;579;46016;-68
2022/12/26 05:10:57;;;;;;;;;7.00;5.75;;;;;6.57;75.10;102171.16;146620;588;45911;-70
2022/12/26 05:13:50;;;;;;;;;8.00;6.50;;;;;6.64;74.83;102170.06;146620;632;46010;-72
2022/12/26 05:29:41;;;;;;;;;5.00;5.00;;;;;6.98;72.71;102185.94;146613;570;46016;-72
2022/12/26 05:35:44;;;;;;;;;7.50;6.00;;;;;7.03;72.25;102188.19;146613;590;46016;-69
2022/12/26 05:38:59;;;;;;;;;8.50;7.50;;;;;7.03;71.65;102197.59;146615;583;46021;-69
2022/12/26 05:41:59;;;;;;;;;36.25;26.25;;;;;7.04;71.66;102202.91;146610;638;46012;-69
2022/12/26 05:44:52;;;;;;;;;9.00;6.25;;;;;7.06;71.69;102209.09;146609;578;46010;-69
2022/12/26 05:48:11;;;;;;;;;10.75;9.25;;;;;3.96;70.51;101665.56;146613;582;46017;-69
2022/12/26 05:51:11;;;;;;;;;19.50;17.00;;;;;7.00;71.65;102203.37;146614;569;46020;-69
2022/12/26 05:54:16;;;;;;;;;34.75;25.00;;;;;6.97;71.36;102209.94;146604;581;46012;-69
2022/12/26 05:57:14;;;;;;;;;44.50;34.00;;;;;6.92;71.93;102206.97;146611;572;46010;-69
2022/12/26 06:00:09;;;;;;;;;36.50;32.00;;;;;6.88;72.79;102215.16;146605;577;46016;-70
2022/12/26 06:03:11;;;;;;;;;41.75;31.75;;;;;6.87;72.34;102210.78;146604;701;46021;-70
2022/12/26 06:06:14;;;;;;;;;46.50;37.50;;;;;6.79;72.38;102214.34;146605;577;46012;-70
2022/12/26 06:09:15;;;;;;;;;30.75;27.75;;;;;6.74;72.66;102211.38;146608;676;46020;-70
2022/12/26 06:12:12;;;;;;;;;75.75;56.00;;;;;6.76;73.51;102216.66;146603;743;47012;-70
2022/12/26 06:15:16;;;;;;;;;80.00;64.67;;;;;6.77;73.19;102214.22;146613;641;46020;-71
2022/12/26 06:18:20;;;;;;;;;166.50;138.25;;;;;6.83;73.63;102213.88;146616;580;47012;-70
2022/12/26 06:21:21;;;;;;;;;89.00;73.67;;;;;6.85;73.30;102210.69;146617;599;46020;-70
2022/12/26 06:24:18;;;;;;;;;33.50;23.25;;;;;6.87;72.82;102213.37;146609;737;46919;-70
2022/12/26 06:27:17;;;;;;;;;56.50;45.75;;;;;6.87;73.38;102214.28;146611;595;46020;-69
2022/12/26 06:30:20;;;;;;;;;27.00;23.25;;;;;6.85;72.77;102214.91;146600;579;48919;-71
2022/12/26 06:33:15;;;;;;;;;33.25;26.00;;;;;6.85;73.41;102212.31;146601;606;46010;-70
2022/12/26 06:36:16;;;;;;;;;35.25;31.00;;;;;6.88;73.95;102220.31;146607;563;46012;-69
2022/12/26 06:39:14;;;;;;;;;33.00;25.50;;;;;6.92;74.67;102217.28;146607;571;46012;-70
2022/12/26 06:42:08;;;;;;;;;26.00;21.50;;;;;6.98;74.23;102222.06;146605;727;46012;-69
2022/12/26 06:45:19;;;;;;;;;40.00;30.00;;;;;7.08;75.32;102229.87;146609;594;47010;-70
2022/12/26 06:48:16;;;;;;;;;36.25;24.25;;;;;7.50;76.65;102231.84;146605;690;46016;-70
2022/12/26 06:51:24;;;;;;;;;29.75;25.00;;;;;8.28;77.34;102225.63;146607;591;46030;-71
2022/12/26 06:54:19;;;;;;;;;49.50;36.75;;;;;9.24;75.64;102228.44;146606;628;46017;-69
2022/12/26 06:57:21;;;;;;;;;52.00;38.50;;;;;10.11;71.50;102229.25;146609;630;46020;-70
2022/12/26 07:00:22;;;;;;;;;45.75;32.00;;;;;10.88;69.95;102222.09;146605;564;46016;-71
2022/12/26 07:03:15;;;;;;;;;33.50;30.25;;;;;11.71;67.40;102234.19;146603;623;46012;-70
2022/12/26 07:06:16;;;;;;;;;25.50;23.00;;;;;12.49;66.26;102223.06;146603;569;46012;-68
2022/12/26 07:09:17;;;;;;;;;25.75;23.25;;;;;13.36;62.19;102227.94;146606;576;47010;-67
2022/12/26 07:12:20;;;;;;;;;20.00;18.50;;;;;14.24;60.78;102231.69;146605;661;46016;-71
2022/12/26 07:15:28;;;;;;;;;21.75;18.75;;;;;15.16;57.31;102224.91;146609;598;46011;-71
2022/12/26 07:18:34;;;;;;;;;;;;;;;;;;;;;
2022/12/26 07:21:32;;;;;;;;;20.00;18.00;;;;;16.63;50.04;102219.75;146608;566;46021;-68
2022/12/26 07:24:28;;;;;;;;;24.00;18.50;;;;;17.04;49.12;102223.53;146604;649;47014;-68
2022/12/26 07:27:23;;;;;;;;;18.75;17.00;;;;;17.28;48.93;102221.19;146610;595;46020;-70
2022/12/26 07:30:38;;;;;;;;;14.00;12.00;;;;;17.50;47.76;102228.34;146605;589;46016;-68
2022/12/26 07:33:33;;;;;;;;;16.75;16.00;;;;;17.50;48.26;102228.34;146603;592;46020;-72
2022/12/26 07:36:30;;;;;;;;;17.25;15.25;;;;;17.49;47.52;102223.94;146604;572;46918;-68
2022/12/26 07:39:28;;;;;;;;;21.75;17.00;;;;;17.44;47.54;102230.66;146608;709;46021;-69
2022/12/26 07:42:21;;;;;;;;;16.50;13.75;;;;;17.30;47.31;102231.75;146602;575;47012;-68
2022/12/26 07:45:18;;;;;;;;;32.50;30.00;;;;;17.15;49.35;102228.41;146606;641;47021;-69
2022/12/26 07:48:15;;;;;;;;;22.25;18.25;;;;;17.01;50.36;102233.87;146600;644;46012;-69
2022/12/26 07:51:21;;;;;;;;;16.25;14.25;;;;;16.97;49.27;102236.25;146608;563;46012;-70
2022/12/26 07:54:26;;;;;;;;;23.25;21.00;;;;;16.93;47.88;102237.81;146602;571;46017;-69
2022/12/26 07:57:20;;;;;;;;;33.75;28.25;;;;;16.76;48.57;102251.78;146609;634;46020;-69
2022/12/26 08:00:19;;;;;;;;;24.25;20.25;;;;;16.58;49.17;102250.03;146605;596;46017;-69
2022/12/26 08:03:27;;;;;;;;;17.75;16.00;;;;;13.70;51.29;101787.84;146599;597;47010;-68
2022/12/26 08:06:23;;;;;;;;;23.25;23.00;;;;;16.28;49.92;102253.66;146605;615;46016;-68
2022/12/26 08:09:19;;;;;;;;;41.50;34.00;;;;;16.23;50.81;102268.22;146606;586;47010;-69
2022/12/26 08:12:20;;;;;;;;;47.75;38.25;;;;;16.16;51.29;102265.28;146605;654;47012;-70
2022/12/26 08:15:16;;;;;;;;;54.25;43.25;;;;;16.14;51.36;102277.41;146607;583;46011;-68
2022/12/26 08:18:21;;;;;;;;;52.00;43.00;;;;;16.13;52.17;102267.72;146603;576;47012;-69
2022/12/26 08:21:22;;;;;;;;;53.00;43.25;;;;;16.08;51.75;102268.34;146609;668;46013;-69
2022/12/26 08:24:15;;;;;;;;;74.67;61.00;;;;;16.00;49.92;102267.91;146603;570;47012;-69
2022/12/26 08:27:09;;;;;;;;;58.25;43.50;;;;;15.88;51.25;102275.97;146612;622;46012;-67
2022/12/26 08:30:01;;;;;;;;;69.25;53.50;;;;;15.85;52.27;102272.31;146604;570;46016;-69
2022/12/26 08:32:59;;;;;;;;;68.00;53.25;;;;;15.89;52.02;102276.91;146602;616;46020;-68
2022/12/26 08:35:51;;;;;;;;;77.00;68.00;;;;;15.91;51.35;102270.03;146605;654;46016;-68
2022/12/26 08:38:49;;;;;;;;;72.50;57.75;;;;;15.90;52.23;102265.62;146609;569;46010;-70
2022/12/26 08:41:44;;;;;;;;;74.00;61.67;;;;;15.87;51.85;102266.34;146605;622;46037;-68
2022/12/26 08:44:39;;;;;;;;;71.00;59.50;;;;;15.88;50.77;102268.13;146609;627;46021;-68
2022/12/26 08:47:34;;;;;;;;;62.25;48.25;;;;;15.90;51.86;102271.75;146605;714;46016;-69
2022/12/26 08:50:35;;;;;;;;;57.25;44.50;;;;;15.90;51.24;102274.34;146609;602;46020;-68
2022/12/26 08:53:34;;;;;;;;;59.75;46.50;;;;;15.90;52.33;102270.84;146603;586;46919;-69
2022/12/26 08:56:31;;;;;;;;;60.00;46.50;;;;;16.01;53.65;102263.56;146609;572;46010;-68
2022/12/26 08:59:23;;;;;;;;;64.00;49.50;;;;;16.17;53.60;102259.25;146606;588;46016;-67
2022/12/26 09:02:19;;;;;;;;;59.50;46.25;;;;;16.32;54.54;102266.09;146602;572;46020;-69
2022/12/26 09:05:21;;;;;;;;;51.50;40.25;;;;;16.48;55.28;102265.16;146606;606;46016;-69
2022/12/26 09:08:39;;;;;;;;;;;;;;;;;;;;;
2022/12/26 09:11:37;;;;;;;;;50.50;40.25;;;;;16.64;54.32;102257.28;146600;566;48012;-69
2022/12/26 09:14:32;;;;;;;;;57.00;43.50;;;;;16.62;54.20;102257.22;146606;589;46021;-69
2022/12/26 09:17:30;;;;;;;;;45.75;37.75;;;;;16.62;54.87;102256.31;146598;578;47016;-68
2022/12/26 09:20:39;;;;;;;;;52.50;42.25;;;;;16.62;55.02;102249.34;146607;572;47010;-68
2022/12/26 09:23:35;;;;;;;;;46.50;38.50;;;;;16.72;54.76;102248.09;146604;552;47012;-68
2022/12/26 09:26:36;;;;;;;;;43.50;34.25;;;;;16.89;54.99;102246.38;146608;563;46020;-68
2022/12/26 09:29:43;;;;;;;;;50.00;40.75;;;;;17.05;54.38;102233.19;146605;610;46017;-68
2022/12/26 09:32:37;;;;;;;;;47.00;36.25;;;;;17.20;54.81;102237.37;146601;634;47010;-68
2022/12/26 09:35:44;;;;;;;;;54.00;41.75;;;;;17.36;52.91;102239.03;146604;578;46039;-69
2022/12/26 09:38:38;;;;;;;;;53.50;43.25;;;;;17.44;54.03;102235.91;146609;602;46020;-69
2022/12/26 09:42:29;;;;;;;;;;;;;;;;;;;;;
2022/12/26 09:45:40;;;;;;;;;47.50;37.00;;;;;17.40;54.41;102226.13;146606;693;47012;-69
2022/12/26 09:48:48;;;;;;;;;53.50;42.25;;;;;17.40;53.41;102226.13;146605;630;46016;-67
2022/12/26 09:51:55;;;;;;;;;44.50;37.25;;;;;17.36;54.38;102221.56;146608;558;46033;-66
2022/12/26 09:55:01;;;;;;;;;45.25;37.75;;;;;17.38;54.62;102217.25;146603;622;46918;-68
2022/12/26 09:58:02;;;;;;;;;48.25;36.75;;;;;17.45;53.70;102214.13;146607;564;46020;-65
2022/12/26 10:01:28;;;;;;;;;49.75;37.25;;;;;17.58;55.17;102210.34;146608;614;46014;-67
2022/12/26 10:04:31;;;;;;;;;41.75;33.75;;;;;17.79;53.75;102218.34;146601;614;47012;-67
2022/12/26 10:08:01;;;;;;;;;55.25;43.50;;;;;15.46;54.88;101775.25;146605;567;46017;-67
2022/12/26 10:11:07;;;;;;;;;48.00;37.50;;;;;18.08;53.30;102205.63;146610;612;46020;-67
2022/12/26 10:14:47;;;;;;;;;43.50;34.00;;;;;18.23;54.18;102199.31;146605;580;46017;-67
2022/12/26 10:18:23;;;;;;;;;48.00;36.25;;;;;18.36;53.44;102189.34;146609;605;46020;-66
2022/12/26 10:21:59;;;;;;;;;42.50;33.50;;;;;18.45;52.78;102187.13;146603;585;46017;-67
2022/12/26 10:24:59;;;;;;;;;31.75;29.00;;;;;18.47;51.34;102185.44;146604;596;46020;-67
2022/12/26 10:27:55;;;;;;;;;38.75;31.00;;;;;18.51;51.52;102186.47;146603;637;47012;-68
2022/12/26 10:30:50;;;;;;;;;34.25;29.00;;;;;18.56;50.34;102185.81;146606;616;47010;-68
2022/12/26 10:34:30;;;;;;;;;35.00;29.50;;;;;18.55;52.06;102172.63;146605;597;46037;-68
2022/12/26 10:37:47;;;;;;;;;39.00;32.50;;;;;18.63;51.97;102174.75;146603;640;46021;-67
2022/12/26 10:40:55;;;;;;;;;17.50;15.50;;;;;18.73;52.29;102175.16;146606;599;46016;-67
2022/12/26 10:43:52;;;;;;;;;7.25;7.25;;;;;18.70;49.58;102166.28;146607;586;47011;-67
2022/12/26 10:47:31;;;;;;;;;8.75;8.00;;;;;16.56;53.09;101789.91;146611;564;46016;-67
2022/12/26 10:50:33;;;;;;;;;15.00;13.50;;;;;18.64;49.66;102160.78;146614;669;46022;-67
2022/12/26 10:53:55;;;;;;;;;13.50;12.00;;;;;18.56;51.88;102150.78;146603;602;46016;-67
2022/12/26 10:56:55;;;;;;;;;16.25;14.00;;;;;18.56;50.47;102148.16;146607;576;46020;-67
2022/12/26 10:59:54;;;;;;;;;19.75;17.50;;;;;18.63;50.91;102148.47;146604;593;46017;-70
2022/12/26 11:03:16;;;;;;;;;16.25;14.75;;;;;16.22;50.76;101712.50;146609;569;46020;-68
2022/12/26 11:06:26;;;;;;;;;12.50;7.50;;;;;18.69;50.39;102151.34;146603;569;47012;-67
2022/12/26 11:09:45;;;;;;;;;24.00;22.25;;;;;18.74;52.84;102148.94;146601;628;47010;-68
2022/12/26 11:12:51;;;;;;;;;14.00;10.00;;;;;18.81;49.94;102145.72;146604;584;46017;-70
2022/12/26 11:15:51;;;;;;;;;16.75;13.25;;;;;18.80;50.05;102141.31;146607;569;47000;-69
2022/12/26 11:19:03;;;;;;;;;13.75;12.75;;;;;18.82;51.47;102138.75;146604;576;46918;-68
2022/12/26 11:21:57;;;;;;;;;16.25;15.75;;;;;18.88;49.50;102139.88;146607;580;46010;-67
2022/12/26 11:25:07;;;;;;;;;16.75;16.00;;;;;18.93;50.14;102138.31;146610;586;47918;-68
2022/12/26 11:28:40;;;;;;;;;15.00;13.50;;;;;19.09;51.35;102134.56;146618;627;46020;-68
2022/12/26 11:31:43;;;;;;;;;19.25;16.75;;;;;19.15;49.13;102124.28;146611;588;46016;-69
2022/12/26 11:35:15;;;;;;;;;14.50;12.75;;;;;16.48;50.31;101639.44;146619;682;46021;-68
2022/12/26 11:38:35;;;;;;;;;12.00;11.75;;;;;19.33;49.87;102131.97;146608;586;47012;-68
2022/12/26 11:41:51;;;;;;;;;19.75;17.50;;;;;16.99;51.85;101693.12;146606;665;47010;-69
2022/12/26 11:44:51;;;;;;;;;21.50;20.00;;;;;19.55;49.03;102115.25;146613;579;46012;-68
2022/12/26 11:47:50;;;;;;;;;17.25;15.75;;;;;19.67;48.61;102106.06;146618;566;46020;-68
2022/12/26 11:50:50;;;;;;;;;21.25;19.25;;;;;19.72;48.51;102107.09;146611;570;46017;-68
2022/12/26 11:53:46;;;;;;;;;27.25;20.50;;;;;19.74;48.38;102097.53;146615;582;46010;-68
2022/12/26 11:56:41;;;;;;;;;18.25;15.00;;;;;19.75;48.50;102105.50;146608;575;47012;-68
2022/12/26 11:59:35;;;;;;;;;27.00;23.00;;;;;19.78;48.75;102100.34;146611;569;48010;-68
2022/12/26 12:02:39;;;;;;;;;25.75;21.50;;;;;19.87;50.14;102097.13;146609;590;46012;-68
2022/12/26 12:06:19;;;;;;;;;11.75;9.75;;;;;19.99;50.54;102094.03;146615;592;46021;-68
2022/12/26 12:09:45;;;;;;;;;22.00;17.00;;;;;20.05;49.40;102091.59;146610;608;47012;-68
2022/12/26 12:13:37;;;;;;;;;23.00;20.25;;;;;17.82;50.60;101679.72;146609;592;47012;-68
2022/12/26 12:17:12;;;;;;;;;23.00;18.50;;;;;17.97;48.45;101693.41;146610;564;46016;-69
2022/12/26 12:20:48;;;;;;;;;14.75;11.00;;;;;17.95;49.95;101685.50;146612;699;47013;-69
2022/12/26 12:24:25;;;;;;;;;12.50;12.25;;;;;20.42;48.33;102095.47;146607;576;48014;-68
2022/12/26 12:27:52;;;;;;;;;9.00;7.50;;;;;20.51;50.21;102088.78;146609;733;46021;-66
2022/12/26 12:30:58;;;;;;;;;10.75;9.75;;;;;20.50;48.54;102092.25;146609;665;46016;-67
2022/12/26 12:34:47;;;;;;;;;17.00;14.00;;;;;18.26;49.35;101697.09;146610;598;47010;-67
2022/12/26 12:38:41;;;;;;;;;;;;;;;;;;;;;
2022/12/26 12:42:19;;;;;;;;;14.50;12.50;;;;;20.71;49.85;102054.25;146606;598;46011;-68
2022/12/26 12:46:11;;;;;;;;;10.25;9.00;;;;;21.01;49.43;102056.94;146604;632;47012;-66
2022/12/26 12:49:36;;;;;;;;;13.00;10.00;;;;;21.25;44.13;102071.72;146603;650;46020;-66
2022/12/26 12:53:22;;;;;;;;;7.00;6.00;;;;;19.79;48.17;101831.03;146607;565;46016;-66
2022/12/26 12:56:40;;;;;;;;;7.00;7.00;;;;;21.01;46.92;102067.50;146617;645;46010;-67
2022/12/26 13:00:33;;;;;;;;;10.00;9.00;;;;;20.83;44.26;102069.56;146611;637;47012;-67
2022/12/26 13:03:58;;;;;;;;;8.50;7.25;;;;;20.73;48.84;102073.66;146615;681;46020;-66
2022/12/26 13:07:18;;;;;;;;;;;;;;;;;;;;;
2022/12/26 13:10:41;;;;;;;;;45.50;38.50;;;;;20.77;43.11;102065.00;146614;587;46020;-66
2022/12/26 13:14:08;;;;;;;;;19.50;18.50;;;;;19.55;48.32;101865.31;146606;571;46015;-66
2022/12/26 13:17:31;;;;;;;;;17.00;13.75;;;;;18.52;45.87;101655.06;146602;630;47010;-67
2022/12/26 13:20:57;;;;;;;;;23.50;21.50;;;;;20.96;46.99;102069.09;146603;645;46917;-68
2022/12/26 13:24:22;;;;;;;;;11.33;8.00;;;;;20.87;46.98;102058.25;146606;588;46020;-67
2022/12/26 13:27:43;;;;;;;;;10.00;9.67;;;;;18.42;49.02;101654.75;146615;564;46025;-68
2022/12/26 13:30:39;;;;;;;;;6.67;6.00;;;;;20.72;45.50;102062.22;146618;606;46010;-66
2022/12/26 13:33:38;;;;;;;;;9.67;8.67;;;;;20.67;45.64;102062.94;146610;618;47012;-67
2022/12/26 13:36:41;;;;;;;;;14.33;12.00;;;;;20.58;48.21;102047.72;146618;614;46020;-67
2022/12/26 13:39:38;;;;;;;;;8.00;7.33;;;;;20.62;45.80;102062.75;146612;606;47012;-66
2022/12/26 13:46:23;;;;;;;;;7.67;6.67;;;;;20.31;46.21;102052.97;146615;576;46014;-67
2022/12/26 13:49:41;;;;;;;;;6.67;6.67;;;;;20.08;49.72;102070.66;146621;627;46021;-67
2022/12/26 13:52:47;;;;;;;;;7.00;7.00;;;;;20.01;49.26;102066.03;146612;582;46014;-67
2022/12/26 13:55:46;;;;;;;;;11.00;10.00;;;;;19.91;47.09;102066.56;146613;633;47010;-67
2022/12/26 13:59:16;;;;;;;;;10.25;10.25;;;;;19.75;49.11;102059.84;146610;592;48016;-66
2022/12/26 14:03:07;;;;;;;;;;;;;;;;;;;;;
2022/12/26 14:06:46;;;;;;;;;8.00;7.00;;;;;18.06;51.95;101792.59;146612;655;46019;-67
2022/12/26 14:10:13;;;;;;;;;8.33;6.33;;;;;19.42;48.84;102065.66;146618;730;46020;-67
2022/12/26 14:13:59;;;;;;;;;8.33;7.33;;;;;18.08;52.33;101846.03;146611;576;46012;-66
2022/12/26 14:17:18;;;;;;;;;6.00;6.00;;;;;19.17;50.77;102058.62;146614;694;47012;-65
2022/12/26 14:20:52;;;;;;;;;13.50;13.50;;;;;19.07;50.59;102060.00;146610;579;46016;-68
2022/12/26 14:24:18;;;;;;;;;13.25;12.25;;;;;19.07;52.35;102059.12;146615;626;46020;-67
2022/12/26 14:28:03;;;;;;;;;11.67;10.33;;;;;19.01;53.17;102065.03;146605;630;47016;-67
2022/12/26 14:31:39;;;;;;;;;12.75;10.00;;;;;16.46;54.28;101646.34;146600;615;46012;-67
2022/12/26 14:35:09;;;;;;;;;20.75;16.50;;;;;16.70;53.29;101690.97;146602;642;46012;-67
2022/12/26 14:38:43;;;;;;;;;18.00;15.25;;;;;16.43;53.94;101672.41;146614;574;48020;-66
2022/12/26 14:46:24;;;;;;;;;23.75;23.25;;;;;15.71;54.56;101641.38;146606;604;47010;-68
2022/12/26 14:49:51;;;;;;;;;85.67;76.33;;;;;17.98;55.87;102067.84;146605;692;46016;-67
2022/12/26 14:52:48;;;;;;;;;99.00;83.33;;;;;17.74;55.53;102068.56;146615;929;47010;-67
2022/12/26 14:56:24;;;;;;;;;83.67;77.00;;;;;17.48;56.62;102066.53;146610;570;46017;-68
2022/12/26 14:59:38;;;;;;;;;37.25;32.50;;;;;17.13;57.48;102078.03;146615;572;46020;-67
2022/12/26 15:02:44;;;;;;;;;12.75;11.50;;;;;16.85;58.33;102066.25;146603;599;47015;-67
2022/12/26 15:05:41;;;;;;;;;10.75;10.75;;;;;16.59;58.76;102076.34;146599;575;47010;-66
2022/12/26 15:09:25;;;;;;;;;38.50;30.00;;;;;13.59;58.99;101586.59;146604;598;47014;-67
2022/12/26 15:13:06;;;;;;;;;25.00;23.50;;;;;16.14;59.38;102075.91;146606;585;47010;-66
2022/12/26 15:16:52;;;;;;;;;40.75;33.25;;;;;12.46;60.12;101481.47;146604;625;46012;-68
2022/12/26 15:20:54;;;;;;;;;31.75;27.25;;;;;12.81;60.96;101597.06;146609;724;47012;-66
2022/12/26 15:24:27;;;;;;;;;44.00;34.50;;;;;12.40;61.52;101577.41;146604;622;46016;-67
2022/12/26 15:28:20;;;;;;;;;46.75;34.75;;;;;12.39;62.33;101627.63;146616;581;46023;-67
2022/12/26 15:31:35;;;;;;;;;40.25;31.00;;;;;14.65;63.02;102085.38;146613;568;46016;-67
2022/12/26 15:35:06;;;;;;;;;32.00;30.00;;;;;14.37;63.73;102085.47;146616;748;46020;-66
2022/12/26 15:38:36;;;;;;;;;31.50;28.00;;;;;14.06;64.83;102096.72;146611;594;47014;-67
2022/12/26 15:42:35;;;;;;;;;27.75;26.50;;;;;10.79;65.87;101567.62;146607;588;47012;-67
2022/12/26 15:46:25;;;;;;;;;50.00;39.00;;;;;13.58;66.43;102100.81;146613;609;46016;-66
2022/12/26 15:49:58;;;;;;;;;;;;;;;;;;;;;
2022/12/26 15:53:29;;;;;;;;;45.50;36.25;;;;;13.32;66.36;102111.31;146610;601;47012;-67
2022/12/26 15:56:59;;;;;;;;;30.75;24.00;;;;;13.26;66.18;102105.72;146618;612;47010;-66
2022/12/26 16:00:35;;;;;;;;;34.50;27.50;;;;;13.17;65.80;102108.63;146610;575;47012;-68
2022/12/26 16:03:55;;;;;;;;;24.75;22.75;;;;;13.11;65.96;102113.44;146613;597;47010;-67
2022/12/26 16:07:39;;;;;;;;;19.75;16.50;;;;;10.21;64.87;101613.94;146615;693;46016;-67
2022/12/26 16:10:38;;;;;;;;;18.00;16.75;;;;;12.86;65.43;102105.78;146620;586;46021;-67
2022/12/26 16:14:08;;;;;;;;;51.50;39.50;;;;;12.77;65.14;102107.78;146613;569;47012;-69
2022/12/26 16:17:42;;;;;;;;;55.00;43.25;;;;;9.85;64.19;101612.38;146615;589;46010;-66
2022/12/26 16:24:10;;;;;;;;;47.75;38.50;;;;;12.51;65.46;102108.72;146614;728;46011;-68
2022/12/26 16:27:33;;;;;;;;;23.00;19.50;;;;;12.48;65.33;102106.81;146604;636;46016;-66
2022/12/26 16:30:41;;;;;;;;;17.75;17.25;;;;;12.43;65.51;102109.13;146605;589;46020;-66
2022/12/26 16:33:49;;;;;;;;;20.50;16.75;;;;;12.35;65.24;102099.91;146605;564;46016;-66
2022/12/26 16:37:05;;;;;;;;;;;;;;;;;;;;;
2022/12/26 16:40:39;;;;;;;;;;;;;;;;;;;;;
2022/12/26 16:43:47;;;;;;;;;30.25;25.25;;;;;12.15;64.85;102113.28;146608;570;46020;-66
2022/12/26 16:46:55;;;;;;;;;20.50;19.75;;;;;12.14;65.37;102121.87;146606;589;46923;-66
2022/12/26 16:49:47;;;;;;;;;18.50;16.00;;;;;12.15;65.15;102115.88;146603;566;46020;-66
2022/12/26 16:52:45;;;;;;;;;17.25;15.75;;;;;12.15;65.35;102115.88;146606;695;46016;-65
2022/12/26 16:56:01;;;;;;;;;31.50;27.75;;;;;12.16;65.26;102115.09;146610;632;46021;-67
2022/12/26 16:59:14;;;;;;;;;39.25;31.75;;;;;12.10;64.58;102125.97;146603;764;46916;-66
2022/12/26 17:02:20;;;;;;;;;55.00;44.00;;;;;12.05;65.24;102116.06;146609;647;46021;-68
2022/12/26 17:05:45;;;;;;;;;;;;;;;;;;;;;
2022/12/26 17:08:43;;;;;;;;;39.00;32.50;;;;;11.95;63.88;102122.34;146609;651;46021;-66
2022/12/26 17:11:39;;;;;;;;;40.50;33.50;;;;;11.87;63.61;102126.09;146604;583;46016;-67
2022/12/26 17:14:38;;;;;;;;;43.00;32.75;;;;;11.82;63.58;102120.56;146610;584;46020;-67